»·PEaware :: ARG1301 KSEA-KPDX

ARG1301 :: KSEA-KPDX

FLIGHT INFORMATION

Flight Status: Arrived
Operator:
Aerolineas Argentinas
More flights by this operator :: More flights under this callsign
Pilot: Luis S. (63)
Aircraft: BOEING 737-800
(B738)
More flights by this aircraft type
Origin: KSEA Seattle-Tacoma Intl
United States
Destination: KPDX Portland Intl
United States
More flights between these airports :: More routes between these airports
Route: SEA7 BUWZO KRATR2
File this flight plan on PilotEdge
Remarks:
Altitude:
(Current/Filed)
190ft
Speed:
(Current/Filed)
300kts
Departed: 05-Oct-20 07:32 PM
Arrived: 05-Oct-20 08:06 PM
Distance/Time
Traveled:
112nm/0:34
Distance/Time
To Go:
Arrived

Flight Plot

Page will automatically refresh every two minutes.

Flight plan parsing failed; only flown route is shown


Map Options




Map Legend


Flown Route
Filed Route
Departure Airport
Arrival Airport
Navaid (VOR, NDB)
Fix

Horizontal Profiles

Position Reports

Time Latitude Longitude Heading Altitude Ground
Speed
05-Oct-20 18:45 47.446570 -122.303239 0 442ft 0kts
05-Oct-20 18:46 47.446570 -122.303239 220 442ft 0kts
05-Oct-20 18:47 47.446570 -122.303239 220 442ft 0kts
05-Oct-20 18:48 47.446570 -122.303239 220 442ft 0kts
05-Oct-20 18:49 47.446570 -122.303239 220 442ft 0kts
05-Oct-20 18:50 47.446570 -122.303239 220 442ft 0kts
05-Oct-20 18:51 47.446570 -122.303239 220 442ft 0kts
05-Oct-20 18:52 47.446570 -122.303239 220 442ft 0kts
05-Oct-20 18:53 47.446570 -122.303239 220 442ft 0kts
05-Oct-20 18:54 47.446570 -122.303239 220 442ft 0kts
05-Oct-20 18:55 47.446570 -122.303239 220 442ft 0kts
05-Oct-20 18:56 47.446570 -122.303239 220 442ft 0kts
05-Oct-20 18:57 47.446570 -122.303239 220 442ft 0kts
05-Oct-20 18:58 47.446570 -122.303239 220 442ft 0kts
05-Oct-20 18:59 47.446570 -122.303239 220 442ft 0kts
05-Oct-20 19:00 47.446570 -122.303239 220 442ft 0kts
05-Oct-20 19:01 47.446570 -122.303239 220 442ft 0kts
05-Oct-20 19:02 47.446570 -122.303239 220 442ft 0kts
05-Oct-20 19:03 47.446570 -122.303239 220 442ft 0kts
05-Oct-20 19:04 47.446570 -122.303239 220 442ft 0kts
05-Oct-20 19:05 47.446570 -122.303239 220 442ft 0kts
05-Oct-20 19:06 47.446570 -122.303239 220 442ft 0kts
05-Oct-20 19:07 47.446570 -122.303239 220 442ft 0kts
05-Oct-20 19:08 47.446570 -122.303239 220 442ft 0kts
05-Oct-20 19:09 47.446570 -122.303239 220 442ft 0kts
05-Oct-20 19:10 47.446570 -122.303239 220 442ft 0kts
05-Oct-20 19:11 47.446570 -122.303239 220 442ft 0kts
05-Oct-20 19:12 47.446570 -122.303239 220 442ft 0kts
05-Oct-20 19:13 47.446570 -122.303239 220 442ft 0kts
05-Oct-20 19:14 47.446570 -122.303239 220 442ft 0kts
05-Oct-20 19:15 47.446570 -122.303239 220 442ft 0kts
05-Oct-20 19:16 47.446570 -122.303239 220 442ft 0kts
05-Oct-20 19:17 47.446570 -122.303239 220 442ft 0kts
05-Oct-20 19:18 47.446570 -122.303239 220 442ft 0kts
05-Oct-20 19:19 47.446570 -122.303239 220 442ft 0kts
05-Oct-20 19:20 47.446570 -122.303239 220 442ft 0kts
05-Oct-20 19:21 47.446836 -122.302898 220 442ft 2kts
05-Oct-20 19:22 47.447207 -122.304989 273 442ft 10kts
05-Oct-20 19:23 47.447437 -122.306098 327 442ft 0kts
05-Oct-20 19:24 47.445670 -122.306346 176 442ft 9kts
05-Oct-20 19:25 47.442299 -122.306341 179 442ft 17kts
05-Oct-20 19:26 47.437237 -122.306397 181 442ft 0kts
05-Oct-20 19:27 47.433252 -122.305580 181 442ft 17kts
05-Oct-20 19:28 47.431966 -122.306229 228 442ft 0kts
05-Oct-20 19:29 47.431815 -122.306494 231 442ft 11kts
05-Oct-20 19:30 47.432027 -122.308016 358 442ft 0kts
05-Oct-20 19:31 47.453735 -122.307896 359 727ft 160kts
05-Oct-20 19:32 47.505796 -122.308290 0 2246ft 222kts
05-Oct-20 19:33 47.573211 -122.306119 0 3773ft 261kts
05-Oct-20 19:34 47.646280 -122.309112 333 5765ft 270kts
05-Oct-20 19:35 47.660363 -122.401811 235 7786ft 274kts
05-Oct-20 19:36 47.608410 -122.486825 225 9815ft 284kts
05-Oct-20 19:37 47.542840 -122.543056 176 11824ft 290kts
05-Oct-20 19:38 47.464264 -122.516248 166 13800ft 290kts
05-Oct-20 19:39 47.384333 -122.483902 166 15264ft 310kts
05-Oct-20 19:40 47.300589 -122.450270 166 17079ft 316kts
05-Oct-20 19:41 47.215408 -122.416124 166 18745ft 324kts
05-Oct-20 19:42 47.128100 -122.381073 165 19299ft 328kts
05-Oct-20 19:43 47.041192 -122.346008 165 19281ft 324kts
05-Oct-20 19:44 46.954060 -122.312557 172 19287ft 324kts
05-Oct-20 19:45 46.863805 -122.308196 181 19294ft 327kts
05-Oct-20 19:46 46.774222 -122.309842 181 19283ft 322kts
05-Oct-20 19:47 46.683981 -122.310077 180 19004ft 329kts
05-Oct-20 19:48 46.594173 -122.310019 180 17537ft 318kts
05-Oct-20 19:49 46.507220 -122.310113 180 16045ft 311kts
05-Oct-20 19:50 46.421493 -122.310173 181 14567ft 307kts
05-Oct-20 19:51 46.337157 -122.310136 181 13086ft 303kts
05-Oct-20 19:52 46.254821 -122.310778 189 12043ft 295kts
05-Oct-20 19:53 46.178855 -122.349814 204 11054ft 289kts
05-Oct-20 19:54 46.105678 -122.393659 202 10237ft 284kts
05-Oct-20 19:55 46.032236 -122.434159 201 9017ft 284kts
05-Oct-20 19:56 45.958656 -122.473630 201 7623ft 278kts
05-Oct-20 19:57 45.898500 -122.528887 222 6299ft 244kts
05-Oct-20 19:58 45.850078 -122.590381 223 5320ft 233kts
05-Oct-20 19:59 45.803132 -122.649610 222 4959ft 221kts
05-Oct-20 20:00 45.756409 -122.706639 222 5003ft 222kts
05-Oct-20 20:01 45.704493 -122.750027 175 4561ft 231kts
05-Oct-20 20:02 45.647461 -122.717017 140 2993ft 207kts
05-Oct-20 20:03 45.619014 -122.657796 118 1220ft 161kts
05-Oct-20 20:04 45.598553 -122.605366 118 197ft 145kts
05-Oct-20 20:05 45.589392 -122.582167 146 33ft 7kts
05-Oct-20 20:06 45.588373 -122.584840 298 33ft 12kts
05-Oct-20 20:07 45.589970 -122.588897 305 33ft 8kts
05-Oct-20 20:08 45.589877 -122.590622 223 33ft 0kts
05-Oct-20 20:09 45.589877 -122.590622 223 33ft 0kts
05-Oct-20 20:10 45.589877 -122.590622 223 33ft 0kts
05-Oct-20 20:11 45.589877 -122.590622 223 33ft 0kts
05-Oct-20 20:12 45.589877 -122.590622 223 33ft 0kts

Navigation Log

Ident Type
Flight plan parsing failed, navigation log unavailable